createdAt,value
2018-09-20T00:03:40.856Z,21.60
2018-09-20T00:08:45.808Z,21.60
2018-09-20T00:13:50.848Z,21.60
2018-09-20T00:18:55.789Z,21.50
2018-09-20T00:24:00.768Z,21.30
2018-09-20T00:29:05.675Z,21.20
2018-09-20T00:34:10.533Z,21.40
2018-09-20T00:39:15.890Z,21.60
2018-09-20T00:44:20.813Z,21.50
2018-09-20T00:49:25.790Z,21.40
2018-09-20T00:54:30.792Z,21.40
2018-09-20T00:59:35.921Z,21.20
2018-09-20T01:04:40.925Z,21.30
2018-09-20T01:09:52.019Z,21.20
2018-09-20T01:14:56.885Z,21.20
2018-09-20T01:20:01.799Z,21.20
2018-09-20T01:25:06.925Z,21.20
2018-09-20T01:30:11.895Z,21.90
2018-09-20T01:35:16.746Z,22.30
2018-09-20T01:40:21.844Z,22.40
2018-09-20T01:45:26.801Z,22.30
2018-09-20T01:50:32.004Z,22.30
2018-09-20T01:55:37.024Z,22.30
2018-09-20T02:00:41.978Z,22.20
2018-09-20T02:05:47.231Z,22.30
2018-09-20T02:10:52.119Z,22.30
2018-09-20T02:15:56.978Z,22.40
2018-09-20T02:21:02.309Z,22.40
2018-09-20T02:26:07.617Z,22.40
2018-09-20T02:31:12.474Z,22.50
2018-09-20T02:36:17.378Z,22.60
2018-09-20T02:41:22.436Z,22.60
2018-09-20T02:46:27.347Z,22.60
2018-09-20T02:51:32.279Z,22.70
2018-09-20T02:56:37.260Z,22.60
2018-09-20T03:01:42.253Z,22.60
2018-09-20T03:06:47.140Z,22.60
2018-09-20T03:11:52.052Z,22.50
2018-09-20T03:16:56.873Z,22.50
2018-09-20T03:22:01.772Z,22.50
2018-09-20T03:27:06.730Z,22.50
2018-09-20T03:32:11.689Z,22.40
2018-09-20T03:37:16.717Z,22.40
2018-09-20T03:42:21.844Z,22.30
2018-09-20T03:47:26.823Z,22.30
2018-09-20T03:52:31.725Z,22.30
2018-09-20T03:57:36.627Z,22.30
2018-09-20T04:02:41.777Z,22.30
2018-09-20T04:07:46.667Z,22.30
2018-09-20T04:12:51.717Z,22.30
2018-09-20T04:17:56.690Z,22.30
2018-09-20T04:23:01.709Z,22.30
2018-09-20T04:28:06.679Z,22.40
2018-09-20T04:33:11.723Z,22.40
2018-09-20T04:38:16.644Z,22.40
2018-09-20T04:43:21.651Z,22.40
2018-09-20T04:48:26.661Z,22.40
2018-09-20T04:53:31.494Z,22.50
2018-09-20T04:58:37.394Z,22.40
2018-09-20T05:03:42.320Z,22.50
2018-09-20T05:08:47.297Z,22.50
2018-09-20T05:13:52.393Z,22.50
2018-09-20T05:18:57.375Z,22.40
2018-09-20T05:24:02.407Z,22.40
2018-09-20T05:29:07.473Z,22.50
2018-09-20T05:34:18.840Z,22.40
2018-09-20T05:39:23.824Z,22.40
2018-09-20T05:44:29.092Z,22.30
2018-09-20T05:49:35.072Z,22.20
2018-09-20T05:54:41.683Z,22.20
2018-09-20T05:59:46.853Z,22.20
2018-09-20T06:04:51.922Z,22.30
2018-09-20T06:09:56.994Z,22.30
2018-09-20T06:15:01.910Z,22.40
2018-09-20T06:20:06.988Z,22.50
2018-09-20T06:25:11.902Z,22.60
2018-09-20T06:30:17.108Z,22.80
2018-09-20T06:35:22.840Z,22.80
2018-09-20T06:40:27.692Z,23.00
2018-09-20T06:45:32.770Z,23.00
2018-09-20T06:50:37.921Z,23.20
2018-09-20T06:55:43.376Z,23.30
2018-09-20T07:00:48.427Z,23.40
2018-09-20T07:05:54.549Z,23.50
2018-09-20T07:10:59.713Z,23.60
2018-09-20T07:16:04.665Z,23.60
2018-09-20T07:21:09.651Z,23.70
2018-09-20T07:26:23.190Z,23.80
2018-09-20T07:31:28.369Z,24.00
2018-09-20T07:36:34.704Z,24.20
2018-09-20T07:41:41.116Z,24.40
2018-09-20T07:46:46.074Z,24.70
2018-09-20T07:51:51.122Z,24.80
2018-09-20T07:56:56.118Z,25.10
2018-09-20T08:02:01.279Z,25.30
2018-09-20T08:07:06.227Z,25.50
2018-09-20T08:12:11.249Z,25.60
2018-09-20T08:17:16.143Z,25.80
2018-09-20T08:22:21.035Z,26.10
2018-09-20T08:27:25.920Z,26.30
2018-09-20T08:32:30.825Z,26.60
2018-09-20T08:37:36.288Z,26.80
2018-09-20T08:42:41.259Z,26.90
2018-09-20T08:47:46.263Z,27.20
2018-09-20T08:52:51.284Z,27.60
2018-09-20T08:57:57.126Z,27.90
2018-09-20T09:03:02.017Z,27.80
2018-09-20T09:08:07.230Z,27.50
2018-09-20T09:13:12.214Z,27.40
2018-09-20T09:18:17.413Z,27.40
2018-09-20T09:23:22.300Z,27.50
2018-09-20T09:28:27.863Z,27.50
2018-09-20T09:33:32.966Z,27.60
2018-09-20T09:38:38.089Z,27.50
2018-09-20T09:43:43.038Z,27.70
2018-09-20T09:48:48.823Z,28.00
2018-09-20T09:53:56.921Z,28.10
2018-09-20T09:59:01.838Z,28.30
2018-09-20T10:04:07.118Z,28.30
2018-09-20T10:09:12.884Z,28.60
2018-09-20T10:14:18.034Z,28.80
2018-09-20T10:19:22.985Z,29.30
2018-09-20T10:24:28.017Z,29.50
2018-09-20T10:29:33.412Z,29.70
2018-09-20T10:34:38.413Z,29.90
2018-09-20T10:39:43.378Z,30.10
2018-09-20T10:44:48.341Z,30.40
2018-09-20T10:49:53.302Z,30.70
2018-09-20T10:54:58.527Z,30.40
2018-09-20T11:00:03.542Z,30.40
2018-09-20T11:05:08.433Z,30.90
2018-09-20T11:10:13.519Z,31.10
2018-09-20T11:15:18.356Z,31.30
2018-09-20T11:20:23.236Z,31.30
2018-09-20T11:25:28.122Z,31.00
2018-09-20T11:30:32.983Z,31.30
2018-09-20T11:35:37.904Z,31.50
2018-09-20T11:40:42.751Z,31.70
2018-09-20T11:45:47.717Z,31.60
2018-09-20T11:50:52.589Z,31.70
2018-09-20T11:55:57.753Z,31.60
2018-09-20T12:01:02.757Z,31.30
2018-09-20T12:06:08.593Z,31.30
2018-09-20T12:11:14.399Z,31.30
2018-09-20T12:16:24.148Z,31.60
2018-09-20T12:21:29.073Z,32.00
2018-09-20T12:26:34.109Z,31.80
2018-09-20T12:31:39.110Z,31.30
2018-09-20T12:36:44.411Z,31.40
2018-09-20T12:41:49.650Z,32.00
2018-09-20T12:46:55.778Z,31.40
2018-09-20T12:52:01.567Z,31.70
2018-09-20T12:57:22.053Z,32.10
2018-09-20T13:02:27.099Z,32.50
2018-09-20T13:07:32.239Z,32.60
2018-09-20T13:12:37.289Z,32.90
2018-09-20T13:17:42.401Z,33.10
2018-09-20T13:22:47.420Z,33.80
2018-09-20T13:27:52.467Z,33.50
2018-09-20T13:32:57.398Z,33.40
2018-09-20T13:38:02.454Z,33.70
2018-09-20T13:43:07.658Z,34.40
2018-09-20T13:48:12.602Z,34.00
2018-09-20T13:53:17.528Z,34.40
2018-09-20T13:58:22.521Z,34.60
2018-09-20T14:03:27.584Z,34.60
2018-09-20T14:08:33.921Z,34.70
2018-09-20T14:13:39.005Z,34.80
2018-09-20T14:18:44.008Z,34.50
2018-09-20T14:23:49.056Z,35.00
2018-09-20T14:28:54.389Z,34.60
2018-09-20T14:34:00.486Z,35.40
2018-09-20T14:39:13.849Z,35.00
2018-09-20T14:44:18.757Z,35.10
2018-09-20T14:49:23.777Z,34.70
2018-09-20T14:54:28.654Z,34.60
2018-09-20T14:59:33.669Z,35.30
2018-09-20T15:04:38.547Z,35.60
2018-09-20T15:09:43.610Z,35.00
2018-09-20T15:14:49.492Z,34.60
2018-09-20T15:19:54.398Z,34.20
2018-09-20T15:24:59.362Z,34.40
2018-09-20T15:30:04.587Z,33.30
2018-09-20T15:35:09.474Z,34.40
2018-09-20T15:40:14.906Z,34.50
2018-09-20T15:45:19.878Z,34.00
2018-09-20T15:50:25.809Z,34.20
2018-09-20T15:55:30.849Z,33.90
2018-09-20T16:00:36.734Z,32.60
2018-09-20T16:05:42.516Z,31.80
2018-09-20T16:10:48.077Z,31.20
2018-09-20T16:15:53.581Z,30.20
2018-09-20T16:20:59.275Z,29.80
2018-09-20T16:26:04.446Z,29.60
2018-09-20T16:32:27.485Z,29.30
2018-09-20T16:37:42.112Z,29.40
2018-09-20T16:42:53.485Z,28.90
2018-09-20T16:47:58.516Z,28.80
2018-09-20T16:53:37.770Z,28.80
2018-09-20T16:58:48.784Z,28.40
2018-09-20T17:03:54.969Z,27.70
2018-09-20T17:08:59.927Z,27.80
2018-09-20T17:14:05.191Z,27.80
2018-09-20T17:19:10.351Z,27.60
2018-09-20T17:24:15.601Z,27.60
2018-09-20T17:29:20.616Z,27.20
2018-09-20T17:34:25.922Z,27.10
2018-09-20T17:39:32.142Z,27.20
2018-09-20T17:44:37.231Z,26.80
2018-09-20T17:49:42.245Z,26.90
2018-09-20T17:54:48.401Z,26.80
2018-09-20T17:59:53.505Z,26.60
2018-09-20T18:05:00.750Z,26.60
2018-09-20T18:10:05.718Z,26.60
2018-09-20T18:15:10.755Z,26.40
2018-09-20T18:20:16.506Z,26.50
2018-09-20T18:25:22.242Z,26.30
2018-09-20T18:30:27.900Z,26.00
2018-09-20T18:35:33.056Z,25.60
2018-09-20T18:40:38.175Z,25.50
2018-09-20T18:45:43.132Z,25.30
2018-09-20T18:50:48.348Z,25.10
2018-09-20T18:55:53.310Z,25.00
2018-09-20T19:00:58.358Z,25.00
2018-09-20T19:06:03.310Z,24.90
2018-09-20T19:11:08.326Z,24.70
2018-09-20T19:16:13.441Z,24.70
2018-09-20T19:21:18.412Z,24.60
2018-09-20T19:26:23.605Z,24.50
2018-09-20T19:31:28.596Z,24.50
2018-09-20T19:36:34.038Z,24.40
2018-09-20T19:41:42.093Z,24.20
2018-09-20T19:46:56.063Z,24.30
2018-09-20T19:52:01.905Z,24.10
2018-09-20T19:57:07.420Z,24.00
2018-09-20T20:02:12.602Z,23.90
2018-09-20T20:07:17.530Z,23.80
2018-09-20T20:12:22.420Z,23.90
2018-09-20T20:17:27.327Z,23.80
2018-09-20T20:22:32.357Z,23.60
2018-09-20T20:27:38.046Z,23.40
2018-09-20T20:32:44.371Z,23.40
2018-09-20T20:37:49.329Z,23.50
2018-09-20T20:42:54.236Z,23.40
2018-09-20T20:47:59.284Z,23.30
2018-09-20T20:53:04.980Z,23.20
2018-09-20T20:58:10.562Z,23.20
2018-09-20T21:03:16.369Z,23.10
2018-09-20T21:08:21.232Z,23.10
2018-09-20T21:13:26.132Z,23.00
2018-09-20T21:18:31.241Z,23.00
2018-09-20T21:23:36.471Z,23.00
2018-09-20T21:28:41.380Z,23.00
2018-09-20T21:33:46.752Z,23.20
2018-09-20T21:38:51.660Z,23.60
2018-09-20T21:43:56.686Z,24.00
2018-09-20T22:05:09.594Z,24.20
2018-09-20T22:10:14.577Z,23.80
2018-09-20T22:15:33.740Z,23.70
2018-09-20T22:20:41.952Z,23.70
2018-09-20T22:25:46.942Z,23.80
2018-09-20T22:30:51.977Z,23.50
2018-09-20T22:35:58.727Z,23.50
2018-09-20T22:41:24.143Z,23.40
2018-09-20T22:46:29.628Z,23.20
2018-09-20T22:51:36.040Z,23.30
2018-09-20T22:56:42.672Z,23.50
2018-09-20T23:01:47.697Z,23.20
2018-09-20T23:06:52.574Z,23.10
2018-09-20T23:11:57.569Z,23.00
2018-09-20T23:17:02.661Z,23.00
2018-09-20T23:22:07.734Z,22.90
2018-09-20T23:27:12.896Z,22.70
2018-09-20T23:32:17.844Z,22.60
2018-09-20T23:37:22.869Z,22.80
2018-09-20T23:42:28.291Z,22.80
2018-09-20T23:47:33.137Z,22.60
2018-09-20T23:52:38.323Z,22.80
2018-09-20T23:57:43.278Z,22.80
